Time;durP1;ratioP1;P1;durP2;ratioP2;P2;SDS_P1;SDS_P2;PMS_P1;PMS_P2;Temp;Humidity;BMP_temperature;BMP_pressure;BME280_temperature;BME280_humidity;BME280_pressure;Samples;Min_cycle;Max_cycle;Signal;HPM_P1;HPM_P2
2023/05/20 00:00:10;;;;;;;6.78;4.95;;;;;;;16.84;60.10;100094.56;4418954;32;20209;-84
2023/05/20 00:02:36;;;;;;;9.02;6.03;;;;;;;16.92;60.11;100088.91;4407564;32;20416;-85
2023/05/20 00:05:01;;;;;;;9.05;5.68;;;;;;;16.98;60.12;100092.97;4392574;32;20140;-84
2023/05/20 00:07:26;;;;;;;8.00;5.55;;;;;;;16.85;60.11;100101.53;4406995;32;20128;-84
2023/05/20 00:09:52;;;;;;;11.20;5.87;;;;;;;16.65;60.10;100096.41;4407542;32;20125;-84
2023/05/20 00:12:17;;;;;;;8.15;5.82;;;;;;;16.67;60.09;100102.47;4405820;32;20113;-85
2023/05/20 00:14:43;;;;;;;10.80;5.62;;;;;;;16.72;60.10;100099.59;4418518;32;24924;-84
2023/05/20 00:17:08;;;;;;;9.20;5.45;;;;;;;16.76;60.10;100107.25;4407021;32;20160;-84
2023/05/20 00:19:33;;;;;;;9.68;5.55;;;;;;;16.62;60.08;100109.72;4406467;32;20125;-84
2023/05/20 00:21:59;;;;;;;12.43;5.68;;;;;;;16.51;60.09;100106.75;4405544;32;20133;-84
2023/05/20 00:24:24;;;;;;;7.28;5.22;;;;;;;16.49;60.09;100103.38;4406198;32;20086;-85
2023/05/20 00:26:50;;;;;;;8.00;5.70;;;;;;;16.47;60.09;100102.59;4418734;32;20102;-85
2023/05/20 00:29:15;;;;;;;8.80;6.25;;;;;;;16.39;60.08;100096.88;4407423;32;20098;-84
2023/05/20 00:31:41;;;;;;;7.93;6.45;;;;;;;16.37;60.08;100101.37;4393454;32;20094;-85
2023/05/20 00:34:07;;;;;;;8.45;6.40;;;;;;;16.74;60.10;100103.00;4407226;32;20117;-85
2023/05/20 00:36:32;;;;;;;12.48;6.32;;;;;;;16.60;60.08;100090.53;4405597;32;20158;-84
2023/05/20 00:38:58;;;;;;;8.85;6.32;;;;;;;16.53;60.09;100094.41;4418577;32;20132;-84
2023/05/20 00:41:23;;;;;;;9.40;5.75;;;;;;;16.63;60.10;100090.38;4405166;32;20113;-84
2023/05/20 00:43:53;;;;;;;11.60;6.15;;;;;;;16.54;60.08;100093.47;4407093;32;20395;-84
2023/05/20 00:46:18;;;;;;;7.12;5.05;;;;;;;16.65;60.09;100093.78;4405991;32;20499;-85
2023/05/20 00:48:44;;;;;;;8.60;6.10;;;;;;;16.61;60.09;100094.87;4405954;32;20212;-85
2023/05/20 00:51:10;;;;;;;12.63;5.53;;;;;;;16.65;60.09;100101.66;4418154;32;20155;-85
2023/05/20 00:53:36;;;;;;;12.50;5.57;;;;;;;16.70;60.10;100104.94;4407345;32;20094;-85
2023/05/20 00:56:03;;;;;;;9.77;6.40;;;;;;;16.54;60.08;100093.47;4393299;32;20104;-84
2023/05/20 00:58:28;;;;;;;9.90;5.87;;;;;;;16.48;60.09;100097.25;4418876;32;20164;-85
2023/05/20 01:00:54;;;;;;;11.12;5.32;;;;;;;16.33;60.08;100105.09;4418609;32;20168;-85
2023/05/20 01:03:19;;;;;;;8.77;5.65;;;;;;;16.23;60.08;100100.28;4406996;32;20143;-84
2023/05/20 01:05:45;;;;;;;9.45;5.82;;;;;;;16.23;60.08;100095.03;4405474;32;20114;-84
2023/05/20 01:08:10;;;;;;;10.82;6.15;;;;;;;16.28;60.07;100098.25;4418722;32;20118;-86
2023/05/20 01:10:37;;;;;;;8.32;6.12;;;;;;;16.26;60.07;100108.00;4406997;32;20132;-85
2023/05/20 01:13:05;;;;;;;10.18;5.87;;;;;;;16.15;60.06;100110.31;4405903;32;20145;-84
2023/05/20 01:15:30;;;;;;;6.50;5.20;;;;;;;16.06;60.06;100113.38;4418179;32;20082;-85
2023/05/20 01:18:00;;;;;;;8.45;6.00;;;;;;;16.02;60.07;100113.59;4418702;32;20122;-85
2023/05/20 01:20:25;;;;;;;9.43;6.22;;;;;;;16.03;60.06;100118.78;4418158;32;20144;-85
2023/05/20 01:22:55;;;;;;;8.05;5.72;;;;;;;16.15;60.06;100115.56;4418180;32;20086;-85
2023/05/20 01:25:21;;;;;;;7.53;5.62;;;;;;;15.92;60.05;100121.09;4406972;32;20130;-85
2023/05/20 01:27:47;;;;;;;8.07;5.43;;;;;;;15.92;60.05;100118.47;4406103;32;20164;-85
2023/05/20 01:30:13;;;;;;;8.57;6.25;;;;;;;15.64;60.04;100122.41;4418325;32;20105;-84
2023/05/20 01:32:43;;;;;;;10.02;6.03;;;;;;;15.60;60.03;100118.19;4406021;32;20464;-85
2023/05/20 01:35:08;;;;;;;8.50;5.53;;;;;;;15.71;60.04;100119.47;4393317;32;20098;-84
2023/05/20 01:37:38;;;;;;;7.85;6.00;;;;;;;15.66;60.04;100122.31;4405631;32;20190;-84
2023/05/20 01:40:04;;;;;;;10.45;5.93;;;;;;;15.68;60.04;100127.50;4407375;32;20102;-84
2023/05/20 01:42:30;;;;;;;7.60;6.35;;;;;;;15.77;60.05;100119.19;4405679;32;20720;-84
2023/05/20 01:44:55;;;;;;;9.70;6.40;;;;;;;15.59;60.03;100121.72;4392847;32;20082;-84
2023/05/20 01:47:21;;;;;;;8.38;6.07;;;;;;;15.80;60.05;100119.03;4418653;32;20098;-84
2023/05/20 01:49:46;;;;;;;12.02;6.20;;;;;;;15.70;60.04;100117.78;4392744;32;24006;-84
2023/05/20 01:52:12;;;;;;;10.55;6.68;;;;;;;15.74;60.04;100122.81;4406936;32;20119;-85
2023/05/20 01:54:37;;;;;;;10.45;6.70;;;;;;;15.98;60.06;100115.53;4406120;32;20156;-84
2023/05/20 01:57:03;;;;;;;10.93;6.57;;;;;;;15.95;60.06;100115.69;4407161;32;20142;-84
2023/05/20 01:59:28;;;;;;;11.93;6.68;;;;;;;15.83;60.05;100113.62;4405552;32;20141;-84
2023/05/20 02:01:54;;;;;;;9.52;6.72;;;;;;;15.79;60.05;100117.31;4414652;32;20098;-84
2023/05/20 02:04:21;;;;;;;13.55;6.75;;;;;;;15.81;60.05;100111.09;4406600;32;20405;-84
2023/05/20 02:06:46;;;;;;;11.00;7.12;;;;;;;15.89;60.05;100108.09;4393013;32;20161;-84
2023/05/20 02:09:12;;;;;;;12.82;6.90;;;;;;;15.94;60.06;100108.72;4406898;32;20132;-84
2023/05/20 02:11:37;;;;;;;8.10;6.32;;;;;;;15.91;60.05;100119.38;4405218;32;20128;-84
2023/05/20 02:14:03;;;;;;;10.95;7.03;;;;;;;15.92;60.05;100113.22;4392266;32;32455;-84
2023/05/20 02:16:28;;;;;;;11.60;7.57;;;;;;;15.96;60.05;100107.72;4406829;32;20125;-85
2023/05/20 02:18:54;;;;;;;10.55;7.55;;;;;;;16.00;60.07;100116.31;4404172;32;28537;-85
2023/05/20 02:21:19;;;;;;;10.40;6.90;;;;;;;15.93;60.05;100109.66;4406722;32;20161;-84
2023/05/20 02:23:45;;;;;;;10.57;7.12;;;;;;;15.96;60.06;100109.50;4405332;32;20078;-85
2023/05/20 02:26:10;;;;;;;12.43;7.22;;;;;;;15.98;60.06;100099.78;4406931;32;20113;-84
2023/05/20 02:28:39;;;;;;;11.38;7.75;;;;;;;16.05;60.06;100108.19;4404781;32;20140;-83
2023/05/20 02:31:05;;;;;;;16.48;8.02;;;;;;;16.19;60.07;100108.37;4405796;32;20094;-84
2023/05/20 02:33:30;;;;;;;11.77;7.40;;;;;;;16.23;60.06;100104.69;4406326;32;20175;-84
2023/05/20 02:35:56;;;;;;;11.80;8.23;;;;;;;16.33;60.08;100115.59;4392383;32;24576;-84
2023/05/20 02:38:21;;;;;;;13.13;7.68;;;;;;;16.35;60.07;100111.97;4402222;32;20146;-84
2023/05/20 02:40:47;;;;;;;10.88;7.40;;;;;;;16.31;60.08;100099.88;4399812;32;20151;-84
2023/05/20 02:43:12;;;;;;;12.43;7.82;;;;;;;16.44;60.08;100108.84;4406246;32;20414;-84
2023/05/20 02:45:38;;;;;;;12.27;7.65;;;;;;;16.45;60.08;100101.81;4405078;32;20541;-85
2023/05/20 02:48:03;;;;;;;12.43;7.68;;;;;;;16.42;60.08;100102.84;4406426;32;20138;-84
2023/05/20 02:50:29;;;;;;;14.32;6.93;;;;;;;16.79;60.10;100101.81;4404939;32;20183;-84
2023/05/20 02:52:54;;;;;;;11.70;8.20;;;;;;;16.79;60.10;100096.56;4406726;32;20094;-85
2023/05/20 02:55:20;;;;;;;12.15;7.03;;;;;;;16.74;60.09;100093.31;4405221;32;20122;-84
2023/05/20 02:57:45;;;;;;;12.48;7.47;;;;;;;16.83;60.10;100095.50;4406387;32;20098;-84
2023/05/20 03:00:12;;;;;;;11.82;7.78;;;;;;;16.88;60.10;100087.38;4405176;32;20488;-85
2023/05/20 03:02:37;;;;;;;10.95;6.85;;;;;;;17.02;60.12;100091.87;4405323;32;20724;-84
2023/05/20 03:05:04;;;;;;;10.57;6.65;;;;;;;16.93;60.11;100095.00;4406435;32;20159;-85
2023/05/20 03:07:30;;;;;;;10.93;6.65;;;;;;;16.95;60.11;100098.41;4392451;32;20167;-86
2023/05/20 03:09:57;;;;;;;9.48;6.53;;;;;;;16.87;60.10;100104.06;4406445;32;20379;-84
2023/05/20 03:12:25;;;;;;;10.10;6.60;;;;;;;17.02;60.12;100100.63;4392440;32;20103;-85
2023/05/20 03:14:54;;;;;;;10.07;6.57;;;;;;;16.98;60.11;100096.44;4406304;32;20153;-86
2023/05/20 03:17:19;;;;;;;11.35;6.28;;;;;;;16.96;60.11;100103.56;4404478;32;20102;-85
2023/05/20 03:19:45;;;;;;;10.73;6.55;;;;;;;17.01;60.12;100103.31;4417464;32;20426;-86
2023/05/20 03:22:11;;;;;;;9.90;6.15;;;;;;;17.06;60.11;100115.31;4417301;32;20140;-85
2023/05/20 03:24:36;;;;;;;11.80;6.00;;;;;;;17.13;60.11;100111.44;4406196;32;20150;-85
2023/05/20 03:27:01;;;;;;;11.82;6.75;;;;;;;17.09;60.12;100111.69;4404516;32;20102;-85
2023/05/20 03:29:27;;;;;;;8.57;5.82;;;;;;;17.17;60.13;100112.13;4405972;32;20458;-85
2023/05/20 03:31:52;;;;;;;9.73;6.45;;;;;;;17.35;60.13;100118.19;4392236;32;20379;-85
2023/05/20 03:34:18;;;;;;;10.00;5.90;;;;;;;17.37;60.13;100116.31;4417379;32;20144;-86
2023/05/20 03:36:43;;;;;;;11.32;6.28;;;;;;;17.38;60.12;100118.84;4416979;32;20447;-86
2023/05/20 03:39:09;;;;;;;10.18;5.90;;;;;;;17.53;60.13;100118.97;4417207;32;27522;-85
2023/05/20 03:41:34;;;;;;;8.35;5.57;;;;;;;17.56;60.14;100117.00;4419308;32;20154;-86
2023/05/20 03:44:00;;;;;;;9.65;5.35;;;;;;;17.62;60.15;100119.31;4408069;32;20453;-85
2023/05/20 03:46:25;;;;;;;9.07;5.53;;;;;;;17.67;60.14;100117.28;4407895;32;20116;-85
2023/05/20 03:48:50;;;;;;;8.40;5.87;;;;;;;17.65;60.15;100119.13;4408085;32;20110;-86
2023/05/20 03:51:16;;;;;;;9.63;5.72;;;;;;;17.78;60.15;100117.56;4406591;32;20137;-85
2023/05/20 03:53:41;;;;;;;8.52;5.50;;;;;;;17.89;60.15;100122.22;4408035;32;20114;-85
2023/05/20 03:56:07;;;;;;;8.32;5.87;;;;;;;17.86;60.16;100116.28;4406456;32;20097;-85
2023/05/20 03:58:32;;;;;;;8.52;5.18;;;;;;;17.95;60.16;100123.66;4408015;32;20156;-85
2023/05/20 04:00:58;;;;;;;8.23;5.40;;;;;;;17.92;60.16;100119.41;4406540;32;20102;-86
2023/05/20 04:03:23;;;;;;;11.55;5.05;;;;;;;18.04;60.16;100131.91;4407854;32;20341;-85
2023/05/20 04:05:49;;;;;;;11.20;5.47;;;;;;;18.15;60.16;100123.38;4406422;32;20483;-85
2023/05/20 04:08:14;;;;;;;10.45;5.05;;;;;;;18.20;60.17;100123.94;4419093;32;20114;-86
2023/05/20 04:10:41;;;;;;;7.22;4.97;;;;;;;18.46;60.19;100135.66;4418959;32;20248;-86
2023/05/20 04:13:07;;;;;;;11.50;5.25;;;;;;;18.45;60.18;100133.06;4419323;32;20287;-85
2023/05/20 04:15:35;;;;;;;7.18;5.18;;;;;;;18.57;60.19;100133.22;4407869;32;20484;-85
2023/05/20 04:18:01;;;;;;;11.48;5.45;;;;;;;18.68;60.19;100133.44;4407914;32;20177;-85
2023/05/20 04:20:26;;;;;;;7.35;4.72;;;;;;;18.70;60.21;100131.59;4407749;32;20095;-85
2023/05/20 04:22:53;;;;;;;7.32;5.07;;;;;;;18.75;60.20;100139.22;4406632;32;20106;-86
2023/05/20 04:25:18;;;;;;;7.78;5.30;;;;;;;18.76;60.20;100137.44;4407363;32;20157;-86
2023/05/20 04:27:44;;;;;;;7.18;4.65;;;;;;;18.78;60.20;100141.69;4406485;32;20141;-85
2023/05/20 04:30:10;;;;;;;7.43;4.85;;;;;;;18.96;60.21;100132.66;4407634;32;20142;-85
2023/05/20 04:32:36;;;;;;;5.93;4.37;;;;;;;18.90;60.21;100137.44;4407845;32;20160;-86
2023/05/20 04:35:01;;;;;;;6.53;4.85;;;;;;;18.99;60.21;100148.31;4406221;32;20105;-85
2023/05/20 04:37:27;;;;;;;5.55;4.35;;;;;;;19.09;60.22;100138.03;4406279;32;20106;-85
2023/05/20 04:39:53;;;;;;;8.77;4.70;;;;;;;19.09;60.22;100153.88;4407640;32;20090;-86
2023/05/20 04:42:20;;;;;;;7.70;4.75;;;;;;;19.24;60.23;100152.94;4406753;32;20130;-86
2023/05/20 04:44:46;;;;;;;6.53;4.53;;;;;;;19.30;60.22;100146.44;4407863;32;20445;-87
2023/05/20 04:47:12;;;;;;;9.40;4.82;;;;;;;19.42;60.24;100145.69;4394087;32;20089;-86
2023/05/20 04:49:38;;;;;;;8.70;4.43;;;;;;;19.53;60.24;100148.53;4419296;32;20106;-87
2023/05/20 04:52:04;;;;;;;7.47;4.50;;;;;;;19.54;60.25;100142.28;4405813;32;20106;-86
2023/05/20 04:54:31;;;;;;;6.30;4.70;;;;;;;19.55;60.24;100145.78;4418792;32;20117;-87
2023/05/20 04:56:57;;;;;;;7.47;4.93;;;;;;;19.60;60.24;100148.97;4418921;32;20093;-86
2023/05/20 04:59:22;;;;;;;10.10;5.28;;;;;;;19.72;60.26;100142.09;4418769;32;20172;-86
2023/05/20 05:01:47;;;;;;;6.65;4.32;;;;;;;19.79;60.26;100140.75;4419217;32;20174;-85
2023/05/20 05:04:13;;;;;;;9.75;4.85;;;;;;;19.70;60.25;100139.53;4418496;32;20143;-86
2023/05/20 05:06:38;;;;;;;8.02;5.07;;;;;;;19.86;60.27;100132.31;4419125;32;20110;-85
2023/05/20 05:09:04;;;;;;;6.75;4.65;;;;;;;19.76;60.25;100123.28;4418767;32;20191;-85
2023/05/20 05:11:29;;;;;;;9.43;4.70;;;;;;;19.98;60.26;100130.69;4418876;32;20156;-85
2023/05/20 05:13:55;;;;;;;7.12;4.32;;;;;;;19.86;60.26;100127.03;4406188;32;20121;-85
2023/05/20 05:16:20;;;;;;;7.20;4.45;;;;;;;20.03;60.27;100133.03;4406257;32;20093;-85
2023/05/20 05:18:46;;;;;;;6.47;4.85;;;;;;;20.06;60.27;100136.31;4418951;32;20160;-87
2023/05/20 05:21:11;;;;;;;8.75;5.15;;;;;;;20.13;60.27;100135.00;4418759;32;20098;-86
2023/05/20 05:23:37;;;;;;;11.18;5.93;;;;;;;20.05;60.27;100146.97;4418467;32;20220;-85
2023/05/20 05:26:02;;;;;;;7.15;4.97;;;;;;;20.12;60.28;100143.03;4393146;32;20131;-85
2023/05/20 05:28:28;;;;;;;6.57;4.78;;;;;;;20.13;60.27;100140.28;4407580;32;20106;-85
2023/05/20 05:30:55;;;;;;;9.02;4.55;;;;;;;20.29;60.28;100153.31;4405702;32;24619;-84
2023/05/20 05:33:20;;;;;;;9.82;5.00;;;;;;;20.37;60.29;100151.03;4407231;32;20101;-86
2023/05/20 05:35:45;;;;;;;6.47;4.62;;;;;;;20.62;60.30;100152.06;4405649;32;22399;-84
2023/05/20 05:38:11;;;;;;;9.50;5.15;;;;;;;20.70;60.30;100141.81;4407415;32;20129;-84
2023/05/20 05:40:36;;;;;;;7.57;4.97;;;;;;;20.76;60.31;100141.41;4405962;32;20246;-85
2023/05/20 05:43:02;;;;;;;9.43;5.12;;;;;;;20.95;60.32;100147.12;4405848;32;20117;-85
2023/05/20 05:45:27;;;;;;;6.95;4.47;;;;;;;20.96;60.32;100154.12;4407014;32;20114;-87
2023/05/20 05:47:53;;;;;;;7.70;4.93;;;;;;;21.08;60.32;100141.84;4408835;32;20121;-87
2023/05/20 05:50:18;;;;;;;7.07;4.25;;;;;;;21.16;60.33;100155.41;4419067;32;20102;-87
2023/05/20 05:52:44;;;;;;;12.93;5.80;;;;;;;21.20;60.34;100158.66;4407196;32;20101;-86
2023/05/20 05:55:10;;;;;;;8.30;5.20;;;;;;;21.09;60.33;100157.62;4406802;32;20129;-85
2023/05/20 05:57:35;;;;;;;8.68;5.15;;;;;;;21.24;60.33;100165.47;4405347;32;20106;-86
2023/05/20 06:00:01;;;;;;;9.90;4.80;;;;;;;21.20;60.34;100156.88;4407217;32;20094;-84
2023/05/20 06:02:26;;;;;;;11.23;5.18;;;;;;;21.17;60.32;100164.19;4404438;32;20537;-86
2023/05/20 06:04:52;;;;;;;9.20;4.82;;;;;;;21.23;60.33;100155.81;4405249;32;20150;-86
2023/05/20 06:07:17;;;;;;;8.13;5.72;;;;;;;21.31;60.34;100146.44;4405345;32;20118;-87
2023/05/20 06:09:43;;;;;;;9.40;5.25;;;;;;;21.35;60.34;100144.41;4418160;32;20094;-86
2023/05/20 06:12:08;;;;;;;6.43;4.80;;;;;;;21.32;60.33;100152.56;4406885;32;20383;-85
2023/05/20 06:14:34;;;;;;;7.15;4.50;;;;;;;21.27;60.34;100147.56;4405723;32;20074;-86
2023/05/20 06:17:00;;;;;;;7.03;5.22;;;;;;;21.26;60.34;100152.97;4406828;32;20086;-86
2023/05/20 06:19:26;;;;;;;8.50;5.50;;;;;;;21.39;60.34;100145.87;4405650;32;20110;-84
2023/05/20 06:21:51;;;;;;;12.43;5.22;;;;;;;21.54;60.35;100142.16;4406756;32;20173;-85
2023/05/20 06:24:17;;;;;;;8.45;4.97;;;;;;;21.60;60.35;100139.06;4392181;32;20102;-86
2023/05/20 06:26:44;;;;;;;9.45;5.78;;;;;;;21.76;60.36;100142.28;4406750;32;20141;-85
2023/05/20 06:29:10;;;;;;;9.13;5.15;;;;;;;21.79;60.35;100140.41;4393231;32;20102;-86
2023/05/20 06:31:35;;;;;;;8.32;5.90;;;;;;;21.79;60.36;100143.03;4406223;32;20152;-86
2023/05/20 06:34:01;;;;;;;8.35;5.12;;;;;;;21.93;60.37;100145.53;4392247;32;20639;-87
2023/05/20 06:36:27;;;;;;;8.50;5.45;;;;;;;22.00;60.37;100144.09;4417433;32;20129;-88
2023/05/20 06:38:52;;;;;;;8.35;5.32;;;;;;;22.04;60.38;100150.94;4389834;32;20153;-85
2023/05/20 06:41:18;;;;;;;9.88;5.85;;;;;;;22.28;60.39;100145.63;4403798;32;20440;-84
2023/05/20 06:43:43;;;;;;;9.60;5.55;;;;;;;22.43;60.40;100152.44;4418168;32;20387;-86
2023/05/20 06:46:08;;;;;;;7.43;5.07;;;;;;;22.57;60.39;100146.94;4404695;32;26599;-86
2023/05/20 06:48:34;;;;;;;8.15;5.12;;;;;;;22.68;60.41;100151.44;4406639;32;20186;-85
2023/05/20 06:50:59;;;;;;;7.00;4.80;;;;;;;22.83;60.42;100144.16;4405391;32;20126;-85
2023/05/20 06:53:25;;;;;;;8.20;5.20;;;;;;;22.96;60.42;100134.28;4405193;32;20105;-86
2023/05/20 06:55:54;;;;;;;6.60;5.10;;;;;;;22.89;60.42;100136.56;4407023;32;20095;-86
2023/05/20 06:58:19;;;;;;;8.90;5.50;;;;;;;23.02;60.43;100136.47;4405240;32;20129;-86
2023/05/20 07:00:45;;;;;;;12.02;5.78;;;;;;;;;;4404832;32;20404;-85
2023/05/20 07:03:11;;;;;;;7.30;4.87;;;;;;;23.09;60.43;100136.81;4405498;32;20113;-86
2023/05/20 07:05:36;;;;;;;8.43;5.35;;;;;;;23.05;60.43;100130.91;4405958;32;20118;-86
2023/05/20 07:08:01;;;;;;;9.05;5.80;;;;;;;;;;4391877;32;20103;-86
2023/05/20 07:10:27;;;;;;;8.73;4.87;;;;;;;23.16;60.43;100127.41;4417767;32;20163;-86
2023/05/20 07:12:52;;;;;;;6.80;5.22;;;;;;;23.18;60.43;100136.09;4404571;32;20167;-86
2023/05/20 07:15:18;;;;;;;6.78;4.72;;;;;;;23.13;60.43;100123.19;4407667;32;20090;-86
2023/05/20 07:17:43;;;;;;;10.75;4.85;;;;;;;23.08;60.43;100124.50;4420243;32;20122;-87
2023/05/20 07:20:09;;;;;;;7.35;5.20;;;;;;;23.21;60.44;100114.63;4408855;32;20133;-88
2023/05/20 07:23:24;;;;;;;9.52;6.00;;;;;;;23.36;60.45;100107.25;4395528;32;20117;-90
2023/05/20 07:25:50;;;;;;;11.60;5.57;;;;;;;23.44;60.46;100110.16;4361826;32;20134;-89
2023/05/20 07:28:16;;;;;;;9.95;5.07;;;;;;;23.67;60.47;100095.06;4419439;32;20173;-89
2023/05/20 07:30:53;;;;;;;;;;;;;;;;;;;;;
2023/05/20 07:34:02;;;;;;;8.90;5.80;;;;;;;23.78;60.47;100093.22;4390820;32;35614;-92
2023/05/20 07:59:02;;;;;;;;;;;;;;;;;;;;;
2023/05/20 08:09:47;;;;;;;;;;;;;;;;;;;;;
2023/05/20 08:37:40;;;;;;;7.10;5.50;;;;;;;25.29;60.55;100077.75;4234567;33;20133;-90
2023/05/20 08:48:05;;;;;;;;;;;;;;;;;;;;;
2023/05/20 09:27:46;;;;;;;;;;;;;;;26.91;60.64;100047.72;4355093;27;20001;-90
2023/05/20 09:33:58;;;;;;;;;;;;;;;;;;;;;
2023/05/20 10:48:51;;;;;;;8.13;5.72;;;;;;;28.47;60.72;99956.56;4884402;27;20375;-87
2023/05/20 10:51:17;;;;;;;8.77;6.12;;;;;;;28.71;60.74;99957.50;4278132;33;20110;-87
2023/05/20 10:53:50;;;;;;;8.38;5.47;;;;;;;28.77;60.74;99964.06;4277994;33;20116;-88
2023/05/20 10:56:17;;;;;;;16.15;5.75;;;;;;;28.83;60.73;99952.69;4290029;33;20108;-85
2023/05/20 10:58:43;;;;;;;5.53;4.97;;;;;;;28.86;60.74;99952.41;4278052;33;20506;-84
2023/05/20 11:01:09;;;;;;;8.65;5.97;;;;;;;28.97;60.74;99949.44;4265986;33;20132;-87
2023/05/20 11:03:34;;;;;;;8.07;5.03;;;;;;;29.22;60.75;99953.03;4277700;33;20101;-87
2023/05/20 11:06:02;;;;;;;9.88;6.40;;;;;;;29.45;60.77;99953.28;4277568;33;20482;-89
2023/05/20 11:08:32;;;;;;;7.90;5.62;;;;;;;29.44;60.77;99948.88;4279042;33;20092;-87
2023/05/20 11:10:57;;;;;;;9.80;6.37;;;;;;;29.36;60.77;99940.84;4289881;33;20084;-88
2023/05/20 11:13:26;;;;;;;10.52;5.70;;;;;;;29.41;60.77;99946.53;4277659;33;20490;-88
2023/05/20 11:15:51;;;;;;;12.35;6.35;;;;;;;29.31;60.76;99937.78;4277515;33;20109;-87
2023/05/20 11:18:17;;;;;;;10.38;5.62;;;;;;;29.36;60.76;99937.31;4277708;33;20151;-87
2023/05/20 11:20:43;;;;;;;8.77;5.45;;;;;;;29.67;60.78;99940.22;4265116;33;22872;-89
2023/05/20 11:23:13;;;;;;;7.62;5.97;;;;;;;29.90;60.80;99927.81;4266076;33;20096;-87
2023/05/20 11:25:38;;;;;;;7.30;5.40;;;;;;;29.92;60.79;99933.84;4265521;33;20594;-88
2023/05/20 11:28:11;;;;;;;11.00;6.03;;;;;;;29.99;60.80;99926.78;4289748;33;20101;-89
2023/05/20 11:30:41;;;;;;;10.18;5.75;;;;;;;30.02;60.79;99921.06;4265994;33;20115;-87
2023/05/20 11:33:06;;;;;;;11.30;6.00;;;;;;;30.10;60.80;99922.97;4278235;33;20172;-87
2023/05/20 11:35:32;;;;;;;7.82;6.30;;;;;;;30.05;60.80;99923.47;4264466;33;20908;-89
2023/05/20 11:38:05;;;;;;;8.63;6.15;;;;;;;29.82;60.79;99917.09;4277189;33;20355;-88
2023/05/20 11:40:34;;;;;;;12.00;6.43;;;;;;;29.72;60.80;99927.13;4277684;33;20088;-88
2023/05/20 11:43:00;;;;;;;9.07;5.93;;;;;;;29.49;60.78;99922.44;4265929;33;20100;-88
2023/05/20 11:45:29;;;;;;;7.35;5.57;;;;;;;29.50;60.78;99924.09;4277233;33;20104;-88
2023/05/20 11:48:04;;;;;;;7.05;5.90;;;;;;;29.55;60.77;99920.91;4266218;33;20092;-87
2023/05/20 11:50:39;;;;;;;9.20;5.60;;;;;;;29.59;60.78;99928.50;4288887;33;20209;-87
2023/05/20 11:53:06;;;;;;;8.25;6.07;;;;;;;29.53;60.77;99923.78;4277987;33;20181;-88
2023/05/20 11:55:34;;;;;;;7.43;6.18;;;;;;;29.52;60.78;99922.09;4290679;33;20123;-87
2023/05/20 11:58:03;;;;;;;8.73;5.75;;;;;;;29.69;60.79;99908.69;4285987;33;125874;-89
2023/05/20 12:00:31;;;;;;;9.73;5.80;;;;;;;29.77;60.79;99912.19;4265623;33;20105;-89
2023/05/20 12:02:57;;;;;;;9.48;6.05;;;;;;;29.76;60.79;99907.00;4290830;33;20100;-88
2023/05/20 12:05:33;;;;;;;11.77;6.75;;;;;;;29.51;60.78;99914.22;4289368;33;20168;-89
2023/05/20 12:07:58;;;;;;;8.90;5.70;;;;;;;29.58;60.78;99907.19;4277785;33;20155;-88
2023/05/20 12:10:23;;;;;;;9.15;6.12;;;;;;;29.63;60.79;99913.72;4290333;33;21751;-87
2023/05/20 12:12:49;;;;;;;10.57;6.20;;;;;;;29.77;60.79;99914.06;4290068;33;20455;-89
2023/05/20 12:15:14;;;;;;;10.80;7.18;;;;;;;29.49;60.78;99911.69;4277923;33;20154;-88
2023/05/20 12:17:45;;;;;;;8.18;5.72;;;;;;;29.50;60.78;99916.06;4289364;33;20112;-87
2023/05/20 12:20:12;;;;;;;8.10;6.15;;;;;;;29.46;60.77;99922.78;4277371;33;20164;-87
2023/05/20 12:22:38;;;;;;;10.73;6.35;;;;;;;29.55;60.79;99913.72;4289434;33;20153;-87
2023/05/20 12:25:04;;;;;;;9.70;5.75;;;;;;;29.63;60.79;99908.38;4290514;33;20441;-87
2023/05/20 12:27:29;;;;;;;12.93;6.03;;;;;;;29.79;60.79;99910.19;4289070;33;20135;-87
2023/05/20 12:29:55;;;;;;;7.85;6.07;;;;;;;29.92;60.80;99898.94;4288974;33;20155;-87
2023/05/20 12:32:22;;;;;;;8.13;6.22;;;;;;;29.70;60.79;99902.31;4290576;33;20127;-87
2023/05/20 12:34:47;;;;;;;11.05;5.75;;;;;;;29.82;60.80;99903.66;4289066;33;20125;-88
2023/05/20 12:37:13;;;;;;;8.85;5.82;;;;;;;29.71;60.79;99904.00;4289258;33;20092;-87
2023/05/20 12:39:38;;;;;;;8.65;5.50;;;;;;;29.68;60.79;99896.28;4276744;33;20122;-87
2023/05/20 12:42:04;;;;;;;12.90;6.37;;;;;;;29.74;60.80;99903.66;4289173;33;20542;-87
2023/05/20 12:44:29;;;;;;;9.40;6.03;;;;;;;29.84;60.80;99899.81;4289005;33;20125;-88
2023/05/20 12:46:55;;;;;;;8.68;6.20;;;;;;;29.73;60.79;99902.81;4276794;33;20128;-87
2023/05/20 12:49:20;;;;;;;8.05;6.20;;;;;;;29.50;60.78;99893.78;4288869;33;20100;-87
2023/05/20 12:51:46;;;;;;;11.43;6.53;;;;;;;29.40;60.79;99898.44;4289853;33;20449;-88
2023/05/20 12:54:11;;;;;;;10.48;6.80;;;;;;;29.42;60.78;99891.91;4289107;33;20355;-87
2023/05/20 12:56:37;;;;;;;8.35;6.45;;;;;;;29.41;60.78;99884.03;4289952;33;20119;-89
2023/05/20 12:59:07;;;;;;;9.07;6.15;;;;;;;29.37;60.77;99883.53;4288935;33;20113;-89
2023/05/20 13:01:32;;;;;;;9.20;6.10;;;;;;;29.44;60.78;99876.47;4290105;33;20176;-88
2023/05/20 13:03:58;;;;;;;10.18;5.47;;;;;;;29.38;60.77;99876.31;4276508;33;20160;-89
2023/05/20 13:06:23;;;;;;;9.75;6.20;;;;;;;29.46;60.78;99879.03;4276626;33;20119;-88
2023/05/20 13:08:49;;;;;;;7.97;6.25;;;;;;;29.43;60.78;99877.47;4274396;33;20443;-88
2023/05/20 13:11:14;;;;;;;8.35;6.07;;;;;;;29.49;60.78;99870.63;4275795;33;20093;-88
2023/05/20 13:13:40;;;;;;;9.10;7.10;;;;;;;29.32;60.78;99881.31;4274235;33;20545;-88
2023/05/20 13:16:05;;;;;;;8.25;6.28;;;;;;;29.15;60.76;99876.97;4286412;33;20409;-88
2023/05/20 13:18:31;;;;;;;8.68;5.55;;;;;;;29.29;60.77;99864.72;4274593;33;20123;-88
2023/05/20 13:20:56;;;;;;;7.50;6.20;;;;;;;29.40;60.79;99863.56;4287166;33;20135;-86
2023/05/20 13:23:22;;;;;;;9.85;6.37;;;;;;;29.45;60.79;99866.63;4286837;33;20157;-89
2023/05/20 13:25:47;;;;;;;12.55;5.97;;;;;;;29.63;60.80;99849.34;4286233;33;20092;-87
2023/05/20 13:28:15;;;;;;;14.77;6.40;;;;;;;29.67;60.79;99854.38;4286333;33;20191;-89
2023/05/20 13:30:40;;;;;;;10.05;6.80;;;;;;;29.41;60.78;99852.69;4286313;33;20135;-88
2023/05/20 13:33:06;;;;;;;10.20;7.35;;;;;;;29.43;60.78;99856.03;4286507;33;20114;-88
2023/05/20 13:35:32;;;;;;;9.07;6.45;;;;;;;29.40;60.78;99852.84;4286342;33;20097;-87
2023/05/20 13:37:58;;;;;;;10.15;6.28;;;;;;;29.47;60.79;99849.34;4286245;33;20145;-88
2023/05/20 13:40:24;;;;;;;8.73;6.05;;;;;;;29.33;60.78;99858.00;4286519;33;20381;-88
2023/05/20 13:42:49;;;;;;;9.55;6.12;;;;;;;29.37;60.78;99856.72;4286579;33;20101;-88
2023/05/20 13:45:18;;;;;;;7.90;6.22;;;;;;;29.22;60.76;99848.47;4286441;33;20238;-89
2023/05/20 13:47:44;;;;;;;8.35;6.20;;;;;;;29.14;60.77;99855.69;4286580;33;20149;-88
2023/05/20 13:50:09;;;;;;;7.18;5.95;;;;;;;29.15;60.76;99862.72;4286185;33;20109;-88
2023/05/20 13:52:35;;;;;;;9.13;6.05;;;;;;;29.07;60.76;99852.81;4275175;33;20145;-88
2023/05/20 13:55:00;;;;;;;9.88;6.40;;;;;;;29.11;60.76;99853.34;4286435;33;20141;-88
2023/05/20 13:57:29;;;;;;;9.13;6.18;;;;;;;29.29;60.77;99837.91;4286372;33;20100;-88
2023/05/20 13:59:54;;;;;;;12.23;6.35;;;;;;;29.34;60.77;99836.44;4275682;33;20548;-88
2023/05/20 14:02:20;;;;;;;9.05;6.70;;;;;;;29.23;60.76;99836.75;4286390;33;20089;-87
2023/05/20 14:04:45;;;;;;;8.30;6.22;;;;;;;29.37;60.77;99832.56;4285752;33;20443;-88
2023/05/20 14:07:11;;;;;;;9.60;6.37;;;;;;;29.50;60.78;99838.28;4286082;33;20181;-87
2023/05/20 14:09:39;;;;;;;8.90;6.53;;;;;;;29.59;60.78;99834.59;4275406;33;20123;-90
2023/05/20 14:12:05;;;;;;;9.02;6.90;;;;;;;29.56;60.79;99834.06;4286221;33;20148;-89
2023/05/20 14:14:30;;;;;;;12.80;6.95;;;;;;;29.59;60.78;99831.94;4285966;33;20127;-88
2023/05/20 14:16:58;;;;;;;9.02;6.53;;;;;;;29.46;60.78;99830.75;4285862;33;20152;-90
2023/05/20 14:19:25;;;;;;;10.73;6.32;;;;;;;28.98;60.75;99838.56;4274184;33;20197;-87
2023/05/20 14:21:50;;;;;;;8.65;6.68;;;;;;;28.67;60.73;99840.13;4274389;33;20121;-86
2023/05/20 14:24:16;;;;;;;17.98;11.88;;;;;;;28.59;60.73;99835.56;4283994;33;20168;-87